Lunamar — 5BNV2 — position and weather

sailwx.info

Track history (hours):
 
Tides and Currents Weather Stations Pressure Air Temp Water Temp Dewpoint Dewpoint Depression Visibility Wind Speed Wind Dir Waves Ship Positions

Lunamar

Last reported at 2015-Aug-28 01:33 UTC. Time now 2015-Aug-28 02:20 UTC.
Position N 51°56' E 004°13'.

Length 90 m; draft 5 m.

Type: Cargo ship. MMSI: 212762000.

Date/timePositionNaut miles runAvg speedWind from/ knotsBaromVisibWave heightAir tempDewpointWater temp
2015-Aug-28 01:33N 51°56' E 004°13'7 7.3
2015-Aug-28 00:33N 51°51' E 004°21'8 8.1
2015-Aug-27 23:33N 51°49' E 004°34'3 3.0
2015-Aug-27 22:33N 51°48' E 004°38'0 0.0
2015-Aug-27 21:34N 51°48' E 004°38'0 0.0
2015-Aug-27 20:34N 51°48' E 004°38'0 0.0
2015-Aug-27 19:34N 51°48' E 004°38'0 0.0
2015-Aug-27 18:34N 51°48' E 004°38'0 0.0
2015-Aug-27 17:33N 51°48' E 004°38'0 0.0
2015-Aug-27 16:33N 51°48' E 004°38'0 0.0
2015-Aug-27 15:33N 51°48' E 004°38'0 0.0
2015-Aug-27 14:33N 51°48' E 004°38'0 0.0
2015-Aug-27 13:34N 51°48' E 004°38'0 0.0
2015-Aug-27 12:34N 51°48' E 004°38'0 0.0
2015-Aug-27 11:34N 51°48' E 004°38'0 0.0
2015-Aug-27 10:33N 51°48' E 004°38'0 0.0
2015-Aug-27 09:33N 51°48' E 004°38'0 0.0
2015-Aug-27 08:33N 51°48' E 004°38'0 0.0
2015-Aug-27 07:33N 51°48' E 004°38'0 0.0
2015-Aug-27 06:33N 51°48' E 004°38'0 0.0
2015-Aug-27 05:29N 51°48' E 004°38'0 0.0
2015-Aug-27 04:33N 51°48' E 004°38'5 4.9
2015-Aug-27 03:33N 51°50' E 004°31'8 7.9
2015-Aug-27 02:33N 51°53' E 004°19'9 9.2
2015-Aug-27 01:33N 51°58' E 004°07'1010.4
2015-Aug-27 00:34N 51°60' E 003°51'5 0.7
2015-Aug-26 16:22N 51°56' E 003°45'0 0.0
2015-Aug-26 13:30N 51°56' E 003°45'7 6.8
2015-Aug-26 12:28N 51°57' E 003°33'61 9.5
2015-Aug-26 06:06N 51°24' E 002°11'15 9.6
2015-Aug-26 04:33N 51°12' E 001°58'10 9.7
2015-Aug-26 03:33N 51°07' E 001°44'10 9.8
2015-Aug-26 02:33N 50°59' E 001°34'  
2015-Aug-21 08:32N 40°40' W 008°48'1 0.8
2015-Aug-21 07:19N 40°41' W 008°49'1 0.8
2015-Aug-21 06:32N 40°40' W 008°48'1 0.7
2015-Aug-21 05:30N 40°40' W 008°48'2 2.6
2015-Aug-21 04:33N 40°42' W 008°50'12 8.5
2015-Aug-21 03:10N 40°53' W 008°56'5 8.2
2015-Aug-21 02:31N 40°58' W 008°59'9 8.5
2015-Aug-21 01:27N 41°06' W 009°03'9 8.8
2015-Aug-21 00:26N 41°15' W 009°08'8 8.8
2015-Aug-20 23:33N 41°21' W 009°12'8 8.3
2015-Aug-20 22:33N 41°29' W 009°17'9 8.6
2015-Aug-20 21:29N 41°38' W 009°21'9 9.8
2015-Aug-20 20:32N 41°46' W 009°26'9 9.2
2015-Aug-20 19:33N 41°54' W 009°31'9 9.3
2015-Aug-20 18:33N 42°03' W 009°36'9 9.3
2015-Aug-20 17:33N 42°11' W 009°42'9 9.3
2015-Aug-20 16:33N 42°20' W 009°47'9 9.3
2015-Aug-20 15:33N 42°28' W 009°52'9 9.3
2015-Aug-20 14:33N 42°37' W 009°55'10 9.6
2015-Aug-20 13:33N 42°46' W 010°01'  
Track history (hours):
 
Tides and Currents Weather Stations Pressure Air Temp Water Temp Dewpoint Dewpoint Depression Visibility Wind Speed Wind Dir Waves Ship Positions

Lunamar

Last reported at 2015-Aug-28 01:33 UTC. Time now 2015-Aug-28 02:20 UTC.
Position N 51°56' E 004°13'.

Length 90 m; draft 5 m.

Type: Cargo ship. MMSI: 212762000.

Date/timePositionNaut miles runAvg speedWind from/ knotsBaromVisibWave heightAir tempDewpointWater temp
2015-Aug-28 01:33N 51°56' E 004°13'7 7.3
2015-Aug-28 00:33N 51°51' E 004°21'8 8.1
2015-Aug-27 23:33N 51°49' E 004°34'3 3.0
2015-Aug-27 22:33N 51°48' E 004°38'0 0.0
2015-Aug-27 21:34N 51°48' E 004°38'0 0.0
2015-Aug-27 20:34N 51°48' E 004°38'0 0.0
2015-Aug-27 19:34N 51°48' E 004°38'0 0.0
2015-Aug-27 18:34N 51°48' E 004°38'0 0.0
2015-Aug-27 17:33N 51°48' E 004°38'0 0.0
2015-Aug-27 16:33N 51°48' E 004°38'0 0.0
2015-Aug-27 15:33N 51°48' E 004°38'0 0.0
2015-Aug-27 14:33N 51°48' E 004°38'0 0.0
2015-Aug-27 13:34N 51°48' E 004°38'0 0.0
2015-Aug-27 12:34N 51°48' E 004°38'0 0.0
2015-Aug-27 11:34N 51°48' E 004°38'0 0.0
2015-Aug-27 10:33N 51°48' E 004°38'0 0.0
2015-Aug-27 09:33N 51°48' E 004°38'0 0.0
2015-Aug-27 08:33N 51°48' E 004°38'0 0.0
2015-Aug-27 07:33N 51°48' E 004°38'0 0.0
2015-Aug-27 06:33N 51°48' E 004°38'0 0.0
2015-Aug-27 05:29N 51°48' E 004°38'0 0.0
2015-Aug-27 04:33N 51°48' E 004°38'5 4.9
2015-Aug-27 03:33N 51°50' E 004°31'8 7.9
2015-Aug-27 02:33N 51°53' E 004°19'9 9.2
2015-Aug-27 01:33N 51°58' E 004°07'1010.4
2015-Aug-27 00:34N 51°60' E 003°51'5 0.7
2015-Aug-26 16:22N 51°56' E 003°45'0 0.0
2015-Aug-26 13:30N 51°56' E 003°45'7 6.8
2015-Aug-26 12:28N 51°57' E 003°33'61 9.5
2015-Aug-26 06:06N 51°24' E 002°11'15 9.6
2015-Aug-26 04:33N 51°12' E 001°58'10 9.7
2015-Aug-26 03:33N 51°07' E 001°44'10 9.8
2015-Aug-26 02:33N 50°59' E 001°34'  
2015-Aug-21 08:32N 40°40' W 008°48'1 0.8
2015-Aug-21 07:19N 40°41' W 008°49'1 0.8
2015-Aug-21 06:32N 40°40' W 008°48'1 0.7
2015-Aug-21 05:30N 40°40' W 008°48'2 2.6
2015-Aug-21 04:33N 40°42' W 008°50'12 8.5
2015-Aug-21 03:10N 40°53' W 008°56'5 8.2
2015-Aug-21 02:31N 40°58' W 008°59'9 8.5
2015-Aug-21 01:27N 41°06' W 009°03'9 8.8
2015-Aug-21 00:26N 41°15' W 009°08'8 8.8
2015-Aug-20 23:33N 41°21' W 009°12'8 8.3
2015-Aug-20 22:33N 41°29' W 009°17'9 8.6
2015-Aug-20 21:29N 41°38' W 009°21'9 9.8
2015-Aug-20 20:32N 41°46' W 009°26'9 9.2
2015-Aug-20 19:33N 41°54' W 009°31'9 9.3
2015-Aug-20 18:33N 42°03' W 009°36'9 9.3
2015-Aug-20 17:33N 42°11' W 009°42'9 9.3
2015-Aug-20 16:33N 42°20' W 009°47'9 9.3
2015-Aug-20 15:33N 42°28' W 009°52'9 9.3
2015-Aug-20 14:33N 42°37' W 009°55'10 9.6
2015-Aug-20 13:33N 42°46' W 010°01'  

Dump ship's entire track history